Time;durP1;ratioP1;P1;durP2;ratioP2;P2;SDS_P1;SDS_P2;PMS_P1;PMS_P2;Temp;Humidity;BMP_temperature;BMP_pressure;BME280_temperature;BME280_humidity;BME280_pressure;Samples;Min_cycle;Max_cycle;Signal;HPM_P1;HPM_P2
2020/12/09 00:01:14;;;;;;;3.45;1.58;;;20.50;48.70;;;;;;5131972;27;20137;-53
2020/12/09 00:03:40;;;;;;;2.58;1.30;;;20.50;48.70;;;;;;5124920;27;20042;-58
2020/12/09 00:06:06;;;;;;;2.90;1.50;;;20.50;48.80;;;;;;5135703;27;20053;-60
2020/12/09 00:08:32;;;;;;;3.33;1.50;;;20.50;48.80;;;;;;5133834;27;20041;-55
2020/12/09 00:10:58;;;;;;;2.25;1.30;;;20.50;48.80;;;;;;5123584;27;20287;-54
2020/12/09 00:13:24;;;;;;;2.90;1.42;;;20.50;48.80;;;;;;5123374;27;20030;-54
2020/12/09 00:15:50;;;;;;;1.80;1.20;;;20.50;48.80;;;;;;5133133;27;20331;-55
2020/12/09 00:18:16;;;;;;;2.63;1.35;;;20.40;48.80;;;;;;5127411;27;20085;-57
2020/12/09 00:20:41;;;;;;;2.22;1.40;;;20.40;48.90;;;;;;5124998;27;20023;-54
2020/12/09 00:23:07;;;;;;;2.00;1.20;;;20.40;48.80;;;;;;5114149;27;20028;-53
2020/12/09 00:25:32;;;;;;;1.92;1.10;;;20.40;48.80;;;;;;5130445;27;20023;-58
2020/12/09 00:27:58;;;;;;;2.30;1.20;;;20.40;48.80;;;;;;5127467;27;20019;-59
2020/12/09 00:30:24;;;;;;;3.28;1.48;;;20.40;48.80;;;;;;5134360;27;20382;-54
2020/12/09 00:32:50;;;;;;;2.20;1.20;;;20.40;48.90;;;;;;5130997;27;20025;-57
2020/12/09 00:35:16;;;;;;;2.53;1.40;;;20.40;48.90;;;;;;5132763;27;20071;-59
2020/12/09 00:37:41;;;;;;;1.90;1.20;;;20.40;48.90;;;;;;5118602;27;20474;-56
2020/12/09 00:40:07;;;;;;;2.78;1.50;;;20.30;48.80;;;;;;5121345;27;20031;-53
2020/12/09 00:42:35;;;;;;;2.63;1.30;;;20.40;48.90;;;;;;5121035;27;20031;-55
2020/12/09 00:45:01;;;;;;;2.25;1.35;;;20.30;48.90;;;;;;5128986;27;20416;-58
2020/12/09 00:47:27;;;;;;;2.78;1.30;;;20.40;49.00;;;;;;5124068;27;20510;-59
2020/12/09 00:52:38;;;;;;;2.15;1.50;;;20.30;48.90;;;;;;5114474;27;20027;-53
2020/12/09 00:55:04;;;;;;;2.20;1.20;;;20.30;49.00;;;;;;5129624;27;20050;-56
2020/12/09 00:57:29;;;;;;;1.85;1.20;;;20.30;49.00;;;;;;5129783;27;20063;-56
2020/12/09 00:59:55;;;;;;;2.35;1.23;;;20.30;49.00;;;;;;5131789;27;20588;-56
2020/12/09 01:02:20;;;;;;;2.25;1.27;;;20.30;49.00;;;;;;5132925;27;20027;-57
2020/12/09 01:04:52;;;;;;;2.35;1.40;;;20.30;49.00;;;;;;5116304;27;20050;-53
2020/12/09 01:07:18;;;;;;;2.00;1.20;;;20.30;49.10;;;;;;5126206;27;20026;-54
2020/12/09 01:09:45;;;;;;;1.95;1.08;;;20.20;49.00;;;;;;5120798;27;20038;-53
2020/12/09 01:12:11;;;;;;;2.33;1.10;;;20.20;49.10;;;;;;5132226;27;20105;-53
2020/12/09 01:14:38;;;;;;;2.03;1.10;;;20.20;49.10;;;;;;5128926;27;20096;-56
2020/12/09 01:17:03;;;;;;;2.85;1.20;;;20.20;49.10;;;;;;5122792;27;20054;-53
2020/12/09 01:19:29;;;;;;;1.90;1.35;;;20.20;49.10;;;;;;5123217;27;20011;-56
2020/12/09 01:21:54;;;;;;;3.38;1.30;;;20.20;49.10;;;;;;5132952;27;20023;-56
2020/12/09 01:24:20;;;;;;;2.28;1.23;;;20.20;49.10;;;;;;5130119;27;20083;-59
2020/12/09 01:26:47;;;;;;;2.30;1.30;;;20.20;49.10;;;;;;5121121;27;20517;-53
2020/12/09 01:29:14;;;;;;;2.28;1.20;;;20.10;49.10;;;;;;5122648;27;20075;-53
2020/12/09 01:31:39;;;;;;;2.03;1.15;;;20.20;49.20;;;;;;5125796;27;20571;-56
2020/12/09 01:34:05;;;;;;;2.08;1.17;;;20.10;49.20;;;;;;5130784;27;20057;-55
2020/12/09 01:36:31;;;;;;;2.03;1.30;;;20.10;49.20;;;;;;5126625;27;20047;-54
2020/12/09 01:38:57;;;;;;;3.28;1.40;;;20.10;49.20;;;;;;5124594;27;20032;-55
2020/12/09 01:41:24;;;;;;;2.13;1.20;;;20.10;49.20;;;;;;5134128;27;20035;-58
2020/12/09 01:43:51;;;;;;;1.85;1.13;;;20.10;49.20;;;;;;5126132;27;20032;-55
2020/12/09 01:46:18;;;;;;;2.95;1.35;;;20.10;49.20;;;;;;5122110;27;20151;-58
2020/12/09 01:48:45;;;;;;;3.08;1.38;;;20.10;49.20;;;;;;5125694;27;20054;-54
2020/12/09 01:51:14;;;;;;;2.20;1.30;;;20.10;49.20;;;;;;5124058;27;20041;-57
2020/12/09 01:53:41;;;;;;;2.17;1.40;;;20.10;49.20;;;;;;5127086;27;20861;-59
2020/12/09 01:56:06;;;;;;;2.92;1.40;;;20.10;49.20;;;;;;5131705;27;20443;-60
2020/12/09 01:58:33;;;;;;;1.88;1.30;;;20.10;49.20;;;;;;5138815;27;20414;-56
2020/12/09 02:00:58;;;;;;;2.05;1.40;;;20.00;49.20;;;;;;5122800;27;20058;-57
2020/12/09 02:03:25;;;;;;;2.20;1.20;;;20.00;49.20;;;;;;5116817;27;20022;-55
2020/12/09 02:05:51;;;;;;;1.85;1.20;;;20.00;49.30;;;;;;5119231;27;20039;-57
2020/12/09 02:08:16;;;;;;;2.53;1.25;;;20.00;49.30;;;;;;5114274;27;20035;-56
2020/12/09 02:10:42;;;;;;;2.22;1.50;;;20.00;49.30;;;;;;5117017;27;20059;-57
2020/12/09 02:13:07;;;;;;;3.40;1.50;;;20.00;49.30;;;;;;5126126;27;20418;-56
2020/12/09 02:15:33;;;;;;;1.92;1.30;;;20.00;49.30;;;;;;5127985;27;20042;-53
2020/12/09 02:17:59;;;;;;;2.65;1.38;;;20.00;49.30;;;;;;5137212;27;20019;-60
2020/12/09 02:20:24;;;;;;;1.92;1.20;;;20.00;49.30;;;;;;5113711;27;20155;-58
2020/12/09 02:22:54;;;;;;;1.77;1.25;;;20.00;49.40;;;;;;5132506;27;20098;-57
2020/12/09 02:25:21;;;;;;;2.28;1.30;;;20.00;49.40;;;;;;5126059;27;20205;-54
2020/12/09 02:27:47;;;;;;;2.22;1.30;;;20.00;49.40;;;;;;5119479;27;20030;-52
2020/12/09 02:30:13;;;;;;;1.80;1.30;;;20.00;49.30;;;;;;5125591;27;20039;-55
2020/12/09 02:32:38;;;;;;;2.55;1.48;;;20.00;49.40;;;;;;5131989;27;20431;-56
2020/12/09 02:35:05;;;;;;;2.65;1.48;;;19.90;49.30;;;;;;5123232;27;20087;-56
2020/12/09 02:37:34;;;;;;;2.13;1.25;;;19.90;49.30;;;;;;5117670;27;20485;-54
2020/12/09 02:40:00;;;;;;;3.47;1.40;;;19.90;49.80;;;;;;5125086;27;20028;-55
2020/12/09 02:42:25;;;;;;;2.40;1.67;;;19.90;49.30;;;;;;5128148;27;20049;-58
2020/12/09 02:44:51;;;;;;;1.98;1.30;;;19.90;49.30;;;;;;5112027;27;20027;-56
2020/12/09 02:47:17;;;;;;;2.08;1.25;;;19.90;49.30;;;;;;5116080;27;20034;-57
2020/12/09 02:49:42;;;;;;;2.17;1.50;;;19.90;49.40;;;;;;5123397;27;20027;-56
2020/12/09 02:52:08;;;;;;;2.10;1.30;;;19.90;49.40;;;;;;5123925;27;20055;-58
2020/12/09 02:54:33;;;;;;;2.40;1.40;;;19.90;49.40;;;;;;5120026;27;20058;-60
2020/12/09 02:56:59;;;;;;;2.40;1.45;;;19.90;49.40;;;;;;5126690;27;20149;-55
2020/12/09 02:59:25;;;;;;;2.70;1.42;;;19.90;49.40;;;;;;5126124;27;20497;-56
2020/12/09 03:01:50;;;;;;;2.55;1.30;;;19.90;49.40;;;;;;5116476;27;20027;-56
2020/12/09 03:04:16;;;;;;;2.80;1.35;;;19.90;49.50;;;;;;5125837;27;20035;-54
2020/12/09 03:06:42;;;;;;;2.25;1.40;;;19.90;49.40;;;;;;5129575;27;20033;-55
2020/12/09 03:09:07;;;;;;;1.77;1.15;;;19.90;50.00;;;;;;5123680;27;20117;-55
2020/12/09 03:11:33;;;;;;;1.88;1.30;;;19.90;49.50;;;;;;5113446;27;20055;-54
2020/12/09 03:13:59;;;;;;;2.05;1.20;;;19.90;49.50;;;;;;5120758;27;20038;-53
2020/12/09 03:16:26;;;;;;;1.83;1.27;;;19.80;49.50;;;;;;5129646;27;20054;-56
2020/12/09 03:18:51;;;;;;;1.77;1.20;;;19.80;49.40;;;;;;5130645;27;20034;-57
2020/12/09 03:21:17;;;;;;;1.83;1.20;;;19.80;49.50;;;;;;5126632;27;20034;-54
2020/12/09 03:23:43;;;;;;;2.08;1.42;;;19.80;49.50;;;;;;5114477;27;20024;-55
2020/12/09 03:26:09;;;;;;;1.75;1.20;;;19.80;49.50;;;;;;5120984;27;20023;-53
2020/12/09 03:28:35;;;;;;;2.40;1.40;;;19.80;49.50;;;;;;5117437;27;20028;-57
2020/12/09 03:31:04;;;;;;;1.70;1.27;;;19.80;49.50;;;;;;5120294;27;20636;-55
2020/12/09 03:33:30;;;;;;;1.95;1.40;;;19.80;49.60;;;;;;5128720;27;20023;-54
2020/12/09 03:35:56;;;;;;;1.92;1.30;;;19.80;49.60;;;;;;5120577;27;20038;-58
2020/12/09 03:38:22;;;;;;;1.70;1.25;;;19.80;49.50;;;;;;5119676;27;20165;-53
2020/12/09 03:40:48;;;;;;;2.20;1.23;;;19.80;49.50;;;;;;5119880;27;20106;-57
2020/12/09 03:43:14;;;;;;;1.83;1.20;;;19.80;49.50;;;;;;5126730;27;20035;-55
2020/12/09 03:45:40;;;;;;;1.75;1.23;;;19.80;49.60;;;;;;5114465;27;20050;-56
2020/12/09 03:48:06;;;;;;;2.40;1.40;;;19.80;49.60;;;;;;5119630;27;20023;-55
2020/12/09 03:50:32;;;;;;;2.08;1.20;;;19.80;49.60;;;;;;5124846;27;20023;-56
2020/12/09 03:52:58;;;;;;;2.22;1.20;;;19.80;49.60;;;;;;5132847;27;20087;-54
2020/12/09 03:55:24;;;;;;;1.58;1.10;;;19.80;49.60;;;;;;5124637;27;20092;-54
2020/12/09 03:57:50;;;;;;;1.85;1.23;;;19.80;49.60;;;;;;5123080;27;20469;-55
2020/12/09 04:00:15;;;;;;;2.25;1.40;;;19.70;49.50;;;;;;5134780;27;20106;-57
2020/12/09 04:02:41;;;;;;;1.92;1.20;;;19.70;49.60;;;;;;5103338;27;20540;-55
2020/12/09 04:05:07;;;;;;;1.95;1.13;;;19.70;49.60;;;;;;5126494;27;20031;-54
2020/12/09 04:07:33;;;;;;;2.03;1.20;;;19.70;49.60;;;;;;5136870;27;20041;-53
2020/12/09 04:09:58;;;;;;;2.00;1.35;;;19.80;49.60;;;;;;5135160;27;20148;-53
2020/12/09 04:12:24;;;;;;;1.60;1.15;;;19.70;49.60;;;;;;5138244;27;20917;-56
2020/12/09 04:14:51;;;;;;;1.60;1.10;;;19.70;49.60;;;;;;5133343;27;20690;-55
2020/12/09 04:17:16;;;;;;;1.92;1.25;;;19.70;49.60;;;;;;5138660;27;20033;-56
2020/12/09 04:19:42;;;;;;;1.55;1.10;;;19.80;49.60;;;;;;5135214;27;20453;-57
2020/12/09 04:22:08;;;;;;;1.67;1.20;;;19.70;49.60;;;;;;5125960;27;20019;-57
2020/12/09 04:24:33;;;;;;;2.22;1.45;;;19.70;49.60;;;;;;5137063;27;20023;-53
2020/12/09 04:26:59;;;;;;;1.85;1.13;;;19.70;49.60;;;;;;5118175;27;20027;-54
2020/12/09 04:29:24;;;;;;;1.65;1.08;;;19.70;49.60;;;;;;5133883;27;20114;-54
2020/12/09 04:31:50;;;;;;;1.80;1.20;;;19.70;49.70;;;;;;5128391;27;20042;-55
2020/12/09 04:34:19;;;;;;;1.42;1.00;;;19.70;49.70;;;;;;5132321;27;20037;-52
2020/12/09 04:36:46;;;;;;;1.77;1.15;;;19.70;49.70;;;;;;5126873;27;20461;-57
2020/12/09 04:39:11;;;;;;;2.10;1.27;;;19.70;49.70;;;;;;5121919;27;20042;-52
2020/12/09 04:41:37;;;;;;;1.83;1.20;;;19.70;49.70;;;;;;5125290;27;20339;-54
2020/12/09 04:44:03;;;;;;;2.00;1.30;;;19.70;49.70;;;;;;5133104;27;20031;-56
2020/12/09 04:46:29;;;;;;;2.08;1.27;;;19.70;49.70;;;;;;5131906;27;20113;-57
2020/12/09 04:48:58;;;;;;;1.90;1.30;;;19.70;49.70;;;;;;5128497;27;20035;-57
2020/12/09 04:51:40;;;;;;;2.95;1.30;;;19.70;49.70;;;;;;5126157;27;20613;-51
2020/12/09 04:54:15;;;;;;;1.63;1.15;;;19.60;49.70;;;;;;5125967;27;20019;-56
2020/12/09 04:56:56;;;;;;;2.10;1.30;;;19.70;49.80;;;;;;5126478;27;20102;-55
2020/12/09 04:59:25;;;;;;;2.08;1.38;;;19.70;49.80;;;;;;5125457;27;20050;-56
2020/12/09 05:02:11;;;;;;;2.80;1.23;;;19.60;49.70;;;;;;5126162;27;20051;-54
2020/12/09 05:04:39;;;;;;;2.22;1.20;;;19.60;49.70;;;;;;5111976;27;20308;-59
2020/12/09 05:07:09;;;;;;;2.53;1.40;;;19.70;49.90;;;;;;5118981;27;20080;-56
2020/12/09 05:09:45;;;;;;;1.88;1.20;;;19.60;49.90;;;;;;5126523;27;20034;-53
2020/12/09 05:12:13;;;;;;;2.10;1.35;;;19.70;50.10;;;;;;5124689;27;20031;-53
2020/12/09 05:14:47;;;;;;;2.50;1.60;;;19.70;50.00;;;;;;5132191;27;20057;-56
2020/12/09 05:17:21;;;;;;;2.78;1.60;;;19.70;50.10;;;;;;5119282;27;20022;-55
2020/12/09 05:19:48;;;;;;;1.98;1.20;;;19.70;50.00;;;;;;5127562;27;20418;-54
2020/12/09 05:22:22;;;;;;;1.92;1.35;;;19.70;50.00;;;;;;5116074;27;20353;-51
2020/12/09 05:24:48;;;;;;;2.08;1.30;;;19.60;50.00;;;;;;5121637;27;20133;-57
2020/12/09 05:27:14;;;;;;;1.70;1.20;;;19.60;50.00;;;;;;5120953;27;20390;-54
2020/12/09 05:29:47;;;;;;;1.75;1.30;;;19.60;50.00;;;;;;5118245;27;20095;-54
2020/12/09 05:32:14;;;;;;;1.67;1.20;;;19.60;50.00;;;;;;5116600;27;20019;-51
2020/12/09 05:34:39;;;;;;;1.75;1.17;;;19.60;50.00;;;;;;5131262;27;20042;-55
2020/12/09 05:37:07;;;;;;;1.77;1.10;;;19.60;50.10;;;;;;5115529;27;20062;-53
2020/12/09 05:39:33;;;;;;;1.33;1.05;;;19.60;50.10;;;;;;5122177;27;20059;-53
2020/12/09 05:42:14;;;;;;;1.90;1.15;;;19.60;50.10;;;;;;5116148;27;20027;-52
2020/12/09 05:44:42;;;;;;;1.80;1.30;;;19.60;50.10;;;;;;5129807;27;20034;-59
2020/12/09 05:47:08;;;;;;;1.65;1.05;;;19.60;50.20;;;;;;5120212;27;20105;-53
2020/12/09 05:49:36;;;;;;;1.95;1.20;;;19.60;50.20;;;;;;5129361;27;20069;-51
2020/12/09 05:52:08;;;;;;;2.30;1.20;;;19.60;50.20;;;;;;5113161;27;20042;-58
2020/12/09 05:54:35;;;;;;;2.15;1.20;;;19.60;50.30;;;;;;5124489;27;20042;-52
2020/12/09 05:57:10;;;;;;;1.92;1.10;;;19.60;50.30;;;;;;5116362;27;20065;-52
2020/12/09 05:59:38;;;;;;;1.58;1.10;;;19.60;50.40;;;;;;5112032;27;20104;-58
2020/12/09 06:02:23;;;;;;;2.33;1.20;;;19.60;50.30;;;;;;5123329;27;20422;-55
2020/12/09 06:04:58;;;;;;;2.22;1.30;;;19.60;50.40;;;;;;5118890;27;20038;-51
2020/12/09 06:07:26;;;;;;;2.70;1.30;;;19.60;50.40;;;;;;5120618;27;20433;-56
2020/12/09 06:10:05;;;;;;;1.92;1.23;;;19.60;50.40;;;;;;5124724;27;20168;-58
2020/12/09 06:12:48;;;;;;;3.05;1.10;;;19.60;50.50;;;;;;5126338;27;20068;-58
2020/12/09 06:15:15;;;;;;;2.20;1.27;;;19.60;50.50;;;;;;5120654;27;20039;-55
2020/12/09 06:17:41;;;;;;;2.25;1.20;;;19.60;50.50;;;;;;5124667;27;20030;-57
2020/12/09 06:20:07;;;;;;;2.88;1.65;;;19.60;50.80;;;;;;5125129;27;20031;-56
2020/12/09 06:22:33;;;;;;;2.72;1.50;;;19.70;51.60;;;;;;5125543;27;20054;-59
2020/12/09 06:25:06;;;;;;;2.40;1.50;;;19.80;51.60;;;;;;5115912;27;20034;-56
2020/12/09 06:27:34;;;;;;;2.67;1.50;;;20.00;51.40;;;;;;5128377;27;20345;-58
2020/12/09 06:30:01;;;;;;;2.50;1.60;;;20.30;51.40;;;;;;5129866;27;20893;-57
2020/12/09 06:32:43;;;;;;;2.58;1.70;;;20.60;51.10;;;;;;5137822;27;20075;-55
2020/12/09 06:35:10;;;;;;;2.35;1.40;;;20.80;50.70;;;;;;5118756;27;20169;-60
2020/12/09 06:37:36;;;;;;;2.33;1.60;;;21.00;50.40;;;;;;5129915;27;20489;-54
2020/12/09 06:40:14;;;;;;;2.50;1.20;;;21.20;50.50;;;;;;5129525;27;20083;-55
2020/12/09 06:42:40;;;;;;;1.80;1.20;;;21.30;50.30;;;;;;5118656;27;20091;-54
2020/12/09 06:45:06;;;;;;;2.28;1.50;;;21.20;50.50;;;;;;5115446;27;20407;-56
2020/12/09 06:47:32;;;;;;;2.25;1.30;;;21.30;50.60;;;;;;5117945;27;20034;-53
2020/12/09 06:50:00;;;;;;;2.83;1.80;;;21.50;51.00;;;;;;5134641;27;20030;-59
2020/12/09 06:52:33;;;;;;;3.13;1.48;;;21.80;50.30;;;;;;5103733;27;20038;-49
2020/12/09 06:55:00;;;;;;;3.60;1.50;;;22.00;49.90;;;;;;5131071;27;20028;-57
2020/12/09 06:57:33;;;;;;;3.50;1.48;;;22.20;49.60;;;;;;5123995;27;20027;-57
2020/12/09 07:00:17;;;;;;;2.35;1.63;;;22.30;49.30;;;;;;5127165;27;20564;-58
2020/12/09 07:02:44;;;;;;;1.73;1.20;;;22.50;49.10;;;;;;5124678;27;20107;-60
2020/12/09 07:05:15;;;;;;;2.22;1.17;;;22.70;48.90;;;;;;5123304;27;20495;-58
2020/12/09 07:07:49;;;;;;;1.92;1.30;;;22.90;48.70;;;;;;5128697;27;20023;-53
2020/12/09 07:10:17;;;;;;;3.22;1.60;;;22.80;46.40;;;;;;5130157;27;20111;-56
2020/12/09 07:12:44;;;;;;;2.13;1.53;;;22.60;46.40;;;;;;5117005;27;20465;-54
2020/12/09 07:15:10;;;;;;;3.25;1.27;;;22.40;46.60;;;;;;5132167;27;20272;-57
2020/12/09 07:17:35;;;;;;;2.35;1.45;;;22.20;46.70;;;;;;5121522;27;20098;-55
2020/12/09 07:20:02;;;;;;;1.98;1.20;;;22.10;47.00;;;;;;5126354;27;20026;-55
2020/12/09 07:22:28;;;;;;;1.70;1.20;;;22.00;47.40;;;;;;5121136;27;20161;-58
2020/12/09 07:24:54;;;;;;;1.58;1.10;;;22.00;47.80;;;;;;5126863;27;20054;-54
2020/12/09 07:27:23;;;;;;;2.17;1.17;;;22.00;48.10;;;;;;5129186;27;20043;-57
2020/12/09 07:29:52;;;;;;;1.50;1.13;;;22.00;48.30;;;;;;5127178;27;20023;-59
2020/12/09 07:32:20;;;;;;;1.60;1.00;;;22.00;48.50;;;;;;5133171;27;20613;-53
2020/12/09 07:34:56;;;;;;;1.75;1.02;;;22.00;48.70;;;;;;5126321;27;20023;-55
2020/12/09 07:37:28;;;;;;;2.53;1.10;;;22.00;49.40;;;;;;5126438;27;20095;-56
2020/12/09 07:39:54;;;;;;;1.35;1.00;;;22.00;48.90;;;;;;5125974;27;20057;-51
2020/12/09 07:42:23;;;;;;;1.85;1.10;;;22.10;49.10;;;;;;5135063;27;20031;-58
2020/12/09 07:44:51;;;;;;;2.05;1.10;;;22.00;49.20;;;;;;5139894;27;20020;-53
2020/12/09 07:47:25;;;;;;;1.38;1.00;;;22.10;49.40;;;;;;5125639;27;20038;-55
2020/12/09 07:49:53;;;;;;;2.53;1.20;;;22.10;49.40;;;;;;5132736;27;20086;-59
2020/12/09 07:52:38;;;;;;;2.28;1.15;;;22.10;49.50;;;;;;5134799;27;20026;-56
2020/12/09 07:55:22;;;;;;;1.63;1.00;;;22.10;49.60;;;;;;5127017;27;20382;-55
2020/12/09 07:57:48;;;;;;;1.35;0.80;;;22.10;49.70;;;;;;5129502;27;20133;-55
2020/12/09 08:00:15;;;;;;;1.25;0.90;;;22.10;49.90;;;;;;5139410;27;20488;-59
2020/12/09 08:02:46;;;;;;;1.45;1.00;;;22.10;49.90;;;;;;5123102;27;20082;-56
2020/12/09 08:05:20;;;;;;;2.70;1.20;;;22.20;50.00;;;;;;5135926;27;20507;-53
2020/12/09 08:08:01;;;;;;;1.55;1.00;;;22.20;50.00;;;;;;5140238;27;20035;-56
2020/12/09 08:10:33;;;;;;;2.03;1.10;;;22.20;50.00;;;;;;5130235;27;20050;-58
2020/12/09 08:13:25;;;;;;;2.00;1.10;;;22.20;50.10;;;;;;5136170;27;20431;-57
2020/12/09 08:16:23;;;;;;;3.40;1.10;;;22.20;50.00;;;;;;5110238;27;20354;-57
2020/12/09 08:18:48;;;;;;;1.70;1.00;;;22.20;50.20;;;;;;5140079;27;20027;-58
2020/12/09 08:21:24;;;;;;;2.00;0.90;;;22.20;50.30;;;;;;5125745;27;20019;-55
2020/12/09 08:23:50;;;;;;;1.50;0.90;;;22.30;50.50;;;;;;5123578;27;20023;-56
2020/12/09 08:26:33;;;;;;;1.80;0.90;;;22.30;50.50;;;;;;5123875;27;20049;-58
2020/12/09 08:28:59;;;;;;;1.48;0.98;;;22.30;51.20;;;;;;5141276;27;20035;-56
2020/12/09 08:31:25;;;;;;;1.60;0.90;;;22.30;50.80;;;;;;5111057;27;20051;-58
2020/12/09 08:33:51;;;;;;;1.42;0.98;;;22.40;50.80;;;;;;5128554;27;20067;-57
2020/12/09 08:36:18;;;;;;;1.05;0.90;;;22.40;51.20;;;;;;5114475;27;20455;-57
2020/12/09 08:38:50;;;;;;;2.13;1.00;;;22.40;51.10;;;;;;5124732;27;20093;-56
2020/12/09 08:41:28;;;;;;;1.95;0.98;;;22.40;51.50;;;;;;5130032;27;20510;-56
2020/12/09 08:43:57;;;;;;;1.05;0.80;;;22.50;51.80;;;;;;5135497;27;20035;-58
2020/12/09 08:46:24;;;;;;;2.88;0.93;;;22.50;51.00;;;;;;5128106;27;20027;-53
2020/12/09 08:48:50;;;;;;;1.75;1.00;;;22.50;51.00;;;;;;5134309;27;20049;-59
2020/12/09 08:51:15;;;;;;;1.80;1.00;;;22.50;51.00;;;;;;5114954;27;20020;-55
2020/12/09 08:53:41;;;;;;;1.83;0.98;;;22.50;51.60;;;;;;5129265;27;20031;-58
2020/12/09 08:56:07;;;;;;;2.83;1.00;;;22.50;51.70;;;;;;5125122;27;20115;-53
2020/12/09 08:58:32;;;;;;;2.45;1.20;;;22.60;51.70;;;;;;5125600;27;20027;-54
2020/12/09 09:01:00;;;;;;;1.42;0.88;;;22.60;52.00;;;;;;5131338;27;20098;-59
2020/12/09 09:03:27;;;;;;;4.97;1.40;;;22.60;51.60;;;;;;5131043;27;20105;-57
2020/12/09 09:05:55;;;;;;;1.65;1.20;;;22.60;48.20;;;;;;5120838;27;20027;-54
2020/12/09 09:08:21;;;;;;;4.70;1.40;;;22.50;47.40;;;;;;5123868;27;20066;-57
2020/12/09 09:10:46;;;;;;;4.18;1.40;;;22.40;47.30;;;;;;5097796;27;20027;-57
2020/12/09 09:13:12;;;;;;;2.55;1.30;;;22.30;47.40;;;;;;5134878;27;20046;-53
2020/12/09 09:15:39;;;;;;;2.25;1.23;;;22.20;47.30;;;;;;5122613;27;20047;-50
2020/12/09 09:18:05;;;;;;;2.25;1.10;;;22.20;47.30;;;;;;5125971;27;20049;-57
2020/12/09 09:20:32;;;;;;;2.22;1.27;;;22.20;47.20;;;;;;5127808;27;20032;-54
2020/12/09 09:22:59;;;;;;;3.80;1.27;;;22.10;47.20;;;;;;5126183;27;20151;-54
2020/12/09 09:25:25;;;;;;;2.20;1.25;;;22.10;47.20;;;;;;5117425;27;20080;-58
2020/12/09 09:27:52;;;;;;;2.22;1.20;;;22.10;47.40;;;;;;5123663;27;20027;-55
2020/12/09 09:30:19;;;;;;;1.95;1.40;;;22.00;47.20;;;;;;5123521;27;20035;-55
2020/12/09 09:32:44;;;;;;;2.10;1.20;;;22.00;47.40;;;;;;5113271;27;20396;-55
2020/12/09 09:35:10;;;;;;;2.58;1.10;;;22.00;47.40;;;;;;5124262;27;20023;-59
2020/12/09 09:37:36;;;;;;;2.42;1.23;;;22.00;47.90;;;;;;5133973;27;20069;-59
2020/12/09 09:40:02;;;;;;;3.42;1.38;;;21.90;47.60;;;;;;5121148;27;20115;-55
2020/12/09 09:42:28;;;;;;;3.40;1.20;;;22.00;48.40;;;;;;5128459;27;20661;-57
2020/12/09 09:44:54;;;;;;;2.90;1.45;;;21.90;47.90;;;;;;5124132;27;20058;-57
2020/12/09 09:47:19;;;;;;;4.60;1.92;;;21.90;48.00;;;;;;5117276;27;20114;-58
2020/12/09 09:49:45;;;;;;;4.28;3.00;;;21.80;46.50;;;;;;5122066;27;20146;-57
2020/12/09 09:52:11;;;;;;;5.95;4.40;;;21.80;43.60;;;;;;5128662;27;20058;-53
2020/12/09 09:54:36;;;;;;;5.45;4.78;;;21.60;39.90;;;;;;5128912;27;20035;-57
2020/12/09 09:57:03;;;;;;;5.88;5.15;;;21.50;39.70;;;;;;5123903;27;20055;-56
2020/12/09 09:59:29;;;;;;;7.00;6.10;;;21.30;37.90;;;;;;5127096;27;20473;-56
2020/12/09 10:01:56;;;;;;;6.65;5.78;;;21.30;37.70;;;;;;5118187;27;20034;-50
2020/12/09 10:04:22;;;;;;;6.03;5.43;;;21.10;37.70;;;;;;5121863;27;20027;-55
2020/12/09 10:06:50;;;;;;;5.68;4.93;;;21.10;38.10;;;;;;5118403;27;20804;-57
2020/12/09 10:09:17;;;;;;;6.68;5.50;;;21.10;39.10;;;;;;5126663;27;20110;-55
2020/12/09 10:11:43;;;;;;;5.63;4.80;;;21.10;38.90;;;;;;5139028;27;20034;-52
2020/12/09 10:14:09;;;;;;;5.55;4.07;;;21.10;39.80;;;;;;5120998;27;20037;-50
2020/12/09 10:16:36;;;;;;;5.25;4.28;;;21.10;40.40;;;;;;5126960;27;20025;-57
2020/12/09 10:19:02;;;;;;;4.35;3.20;;;21.10;41.00;;;;;;5126666;27;20759;-56
2020/12/09 10:21:31;;;;;;;4.03;3.38;;;21.20;41.40;;;;;;5136457;27;20046;-54
2020/12/09 10:23:57;;;;;;;4.03;3.10;;;21.20;41.70;;;;;;5136382;27;20514;-53
2020/12/09 10:26:31;;;;;;;4.70;2.70;;;21.20;42.00;;;;;;5115836;27;20043;-56
2020/12/09 10:29:01;;;;;;;3.53;2.67;;;21.20;42.30;;;;;;5112742;27;20375;-57
2020/12/09 10:31:44;;;;;;;3.42;2.50;;;21.20;42.40;;;;;;5121082;27;20162;-54
2020/12/09 10:34:13;;;;;;;2.90;2.30;;;21.20;42.60;;;;;;5125410;27;20159;-55
2020/12/09 10:36:39;;;;;;;;;;;21.20;42.80;;;;;;5120256;27;20034;-59
2020/12/09 10:39:09;;;;;;;2.63;1.92;;;21.20;43.00;;;;;;5134101;27;19911;-54
2020/12/09 10:41:38;;;;;;;2.65;2.08;;;21.20;43.10;;;;;;5122646;27;20503;-53
2020/12/09 10:44:04;;;;;;;3.08;2.30;;;21.20;43.30;;;;;;5133760;27;20043;-54
2020/12/09 10:46:35;;;;;;;3.22;2.30;;;21.20;43.50;;;;;;5132093;27;20138;-53
2020/12/09 10:49:02;;;;;;;3.45;2.13;;;21.20;43.50;;;;;;5129166;27;20195;-51
2020/12/09 10:51:28;;;;;;;2.75;2.10;;;21.20;43.50;;;;;;5124463;27;20037;-54
2020/12/09 10:53:55;;;;;;;3.28;2.22;;;21.20;43.80;;;;;;5127045;27;20183;-59
2020/12/09 10:56:31;;;;;;;3.53;2.20;;;21.20;43.80;;;;;;5124045;27;20027;-55
2020/12/09 10:58:57;;;;;;;3.45;2.30;;;21.20;44.00;;;;;;5112587;27;20019;-50
2020/12/09 11:01:27;;;;;;;2.90;2.00;;;21.20;44.10;;;;;;5134827;27;20098;-52
2020/12/09 11:03:54;;;;;;;3.15;2.30;;;21.20;44.20;;;;;;5109227;27;20051;-57
2020/12/09 11:06:26;;;;;;;2.95;2.20;;;21.20;44.20;;;;;;5128486;27;20070;-50
2020/12/09 11:08:52;;;;;;;2.88;2.05;;;21.30;44.40;;;;;;5117490;27;20027;-56
2020/12/09 11:11:18;;;;;;;4.15;2.13;;;21.30;44.40;;;;;;5118983;27;20088;-54
2020/12/09 11:13:44;;;;;;;3.00;2.10;;;21.20;44.40;;;;;;5121728;27;20761;-51
2020/12/09 11:16:16;;;;;;;3.28;2.30;;;21.30;44.50;;;;;;5104759;27;20103;-55
2020/12/09 11:18:42;;;;;;;3.50;2.30;;;21.30;44.50;;;;;;5125703;27;20884;-48
2020/12/09 11:21:09;;;;;;;3.65;2.00;;;21.30;44.60;;;;;;5112086;28;20027;-57
2020/12/09 11:23:34;;;;;;;2.90;2.05;;;21.30;44.70;;;;;;5117947;27;20042;-51
2020/12/09 11:26:00;;;;;;;3.10;2.00;;;21.30;44.70;;;;;;5120298;27;20035;-52
2020/12/09 11:28:26;;;;;;;3.58;1.92;;;21.30;44.80;;;;;;5127974;27;20788;-55
2020/12/09 11:30:52;;;;;;;2.88;1.90;;;21.30;44.80;;;;;;5103262;28;20362;-52
2020/12/09 11:33:17;;;;;;;3.10;2.03;;;21.30;44.90;;;;;;5121372;27;20031;-58
2020/12/09 11:35:43;;;;;;;3.17;2.30;;;21.30;44.90;;;;;;5117292;27;20427;-51
2020/12/09 11:38:09;;;;;;;4.10;2.08;;;21.30;45.00;;;;;;5126035;27;20046;-56
2020/12/09 11:40:34;;;;;;;2.80;2.15;;;21.30;45.00;;;;;;5117501;27;20023;-56
2020/12/09 11:43:00;;;;;;;2.90;2.20;;;21.30;45.00;;;;;;5132238;27;20031;-51
2020/12/09 11:45:25;;;;;;;2.60;1.80;;;21.30;45.10;;;;;;5111965;27;20042;-54
2020/12/09 11:47:51;;;;;;;2.97;2.00;;;21.30;45.20;;;;;;5110660;27;20026;-54
2020/12/09 11:50:17;;;;;;;2.50;1.90;;;21.30;45.20;;;;;;5121257;27;20534;-58
2020/12/09 11:52:42;;;;;;;3.10;2.20;;;21.30;45.20;;;;;;5129569;27;20369;-55
2020/12/09 11:55:08;;;;;;;2.90;2.00;;;21.30;45.30;;;;;;5114314;27;20027;-58
2020/12/09 11:57:34;;;;;;;2.63;1.70;;;21.30;45.40;;;;;;5113106;27;20059;-57
2020/12/09 11:59:59;;;;;;;2.65;2.00;;;21.30;45.40;;;;;;5136233;27;20130;-54
2020/12/09 12:02:25;;;;;;;2.90;2.10;;;21.30;45.40;;;;;;5117213;27;20023;-52
2020/12/09 12:04:54;;;;;;;2.50;1.90;;;21.30;45.40;;;;;;5121430;27;20394;-51
2020/12/09 12:07:20;;;;;;;2.70;1.80;;;21.30;45.50;;;;;;5127327;27;20027;-53
2020/12/09 12:09:46;;;;;;;2.72;1.92;;;21.30;45.50;;;;;;5129422;27;20045;-55
2020/12/09 12:12:11;;;;;;;3.72;2.15;;;21.40;45.60;;;;;;5123192;27;20031;-57
2020/12/09 12:14:37;;;;;;;3.20;2.17;;;21.30;45.60;;;;;;5117253;27;20467;-59
2020/12/09 12:17:07;;;;;;;2.13;1.67;;;21.40;45.60;;;;;;5124169;27;20125;-55
2020/12/09 12:19:36;;;;;;;2.78;2.00;;;21.40;45.80;;;;;;5111264;27;20536;-57
2020/12/09 12:22:06;;;;;;;3.17;2.03;;;21.30;45.60;;;;;;5129251;27;20027;-57
2020/12/09 12:24:33;;;;;;;3.17;1.98;;;21.40;45.80;;;;;;5121782;27;20070;-55
2020/12/09 12:26:59;;;;;;;3.08;1.92;;;21.30;45.70;;;;;;5111675;27;20049;-57
2020/12/09 12:29:25;;;;;;;2.90;1.90;;;21.30;45.70;;;;;;5120685;27;20023;-55
2020/12/09 12:31:51;;;;;;;2.58;1.95;;;21.40;45.80;;;;;;5120631;27;20092;-55
2020/12/09 12:34:16;;;;;;;2.80;1.95;;;21.40;45.80;;;;;;5132905;27;20035;-57
2020/12/09 12:36:42;;;;;;;2.60;2.08;;;21.40;45.80;;;;;;5130066;27;20046;-54
2020/12/09 12:39:08;;;;;;;3.25;2.03;;;21.40;45.90;;;;;;5138432;27;20672;-59
2020/12/09 12:41:35;;;;;;;2.88;2.00;;;21.40;45.90;;;;;;5118918;27;20036;-58
2020/12/09 12:44:02;;;;;;;2.60;2.00;;;21.40;45.90;;;;;;5127142;27;20051;-55
2020/12/09 12:46:27;;;;;;;2.95;1.88;;;21.40;46.00;;;;;;5118881;27;20686;-55
2020/12/09 12:48:53;;;;;;;2.78;1.95;;;21.40;45.90;;;;;;5117285;27;20076;-59
2020/12/09 12:51:21;;;;;;;2.88;2.10;;;21.40;46.00;;;;;;5117795;27;20023;-57
2020/12/09 12:53:47;;;;;;;3.00;1.92;;;21.40;45.90;;;;;;5116668;27;20207;-55